createdAt,value
2019-05-21T00:02:16.382Z,13.27
2019-05-21T00:04:49.075Z,13.26
2019-05-21T00:07:24.083Z,13.25
2019-05-21T00:09:59.422Z,13.24
2019-05-21T00:12:34.501Z,13.22
2019-05-21T00:15:09.375Z,13.19
2019-05-21T00:17:49.585Z,13.17
2019-05-21T00:20:22.244Z,13.14
2019-05-21T00:22:56.488Z,13.13
2019-05-21T00:25:29.072Z,13.10
2019-05-21T00:28:39.692Z,13.07
2019-05-21T00:31:34.654Z,13.04
2019-05-21T00:34:43.479Z,13.04
2019-05-21T00:37:41.525Z,13.02
2019-05-21T00:40:36.836Z,13.02
2019-05-21T00:43:11.066Z,13.01
2019-05-21T00:45:43.998Z,13.04
2019-05-21T00:48:18.189Z,13.05
2019-05-21T00:50:52.112Z,13.03
2019-05-21T00:53:25.385Z,13.01
2019-05-21T00:55:59.254Z,13.00
2019-05-21T00:58:31.810Z,12.98
2019-05-21T01:01:05.491Z,12.99
2019-05-21T01:03:43.439Z,12.98
2019-05-21T01:06:16.863Z,12.96
2019-05-21T01:08:49.260Z,12.94
2019-05-21T01:11:21.813Z,12.91
2019-05-21T01:13:54.350Z,12.88
2019-05-21T01:16:27.051Z,12.86
2019-05-21T01:19:00.394Z,12.80
2019-05-21T01:21:33.002Z,12.78
2019-05-21T01:24:06.423Z,12.78
2019-05-21T01:26:39.179Z,12.77
2019-05-21T01:29:11.717Z,12.77
2019-05-21T01:31:44.367Z,12.76
2019-05-21T01:34:18.611Z,12.80
2019-05-21T01:36:51.412Z,12.75
2019-05-21T01:39:24.307Z,12.70
2019-05-21T01:41:56.933Z,12.71
2019-05-21T01:44:30.666Z,12.71
2019-05-21T01:47:03.303Z,12.66
2019-05-21T01:49:38.501Z,12.61
2019-05-21T01:52:14.780Z,12.57
2019-05-21T01:54:48.246Z,12.56
2019-05-21T01:57:25.854Z,12.54
2019-05-21T01:59:59.418Z,12.53
2019-05-21T02:02:33.483Z,12.53
2019-05-21T02:05:06.618Z,12.54
2019-05-21T02:07:39.183Z,12.52
2019-05-21T02:10:12.015Z,12.47
2019-05-21T02:12:44.554Z,12.47
2019-05-21T02:15:16.623Z,12.46
2019-05-21T02:17:49.973Z,12.43
2019-05-21T02:20:22.555Z,12.44
2019-05-21T02:22:55.327Z,12.41
2019-05-21T02:25:28.796Z,12.43
2019-05-21T02:28:01.498Z,12.43
2019-05-21T02:30:34.066Z,12.44
2019-05-21T02:33:06.686Z,12.42
2019-05-21T02:35:53.766Z,12.40
2019-05-21T02:38:27.581Z,12.42
2019-05-21T02:41:00.199Z,12.42
2019-05-21T02:43:33.126Z,12.40
2019-05-21T02:46:07.172Z,12.38
2019-05-21T02:48:40.568Z,12.38
2019-05-21T02:51:13.045Z,12.39
2019-05-21T02:53:45.770Z,12.38
2019-05-21T02:56:18.370Z,12.35
2019-05-21T02:58:51.462Z,12.35
2019-05-21T03:01:34.054Z,12.33
2019-05-21T03:04:06.749Z,12.32
2019-05-21T03:06:39.495Z,12.30
2019-05-21T03:09:12.273Z,12.30
2019-05-21T03:11:44.747Z,12.30
2019-05-21T03:14:17.391Z,12.29
2019-05-21T03:16:51.357Z,12.26
2019-05-21T03:19:23.964Z,12.28
2019-05-21T03:21:56.714Z,12.29
2019-05-21T03:24:29.536Z,12.28
2019-05-21T03:27:02.100Z,12.28
2019-05-21T03:29:36.147Z,12.27
2019-05-21T03:32:08.896Z,12.27
2019-05-21T03:34:42.187Z,12.26
2019-05-21T03:37:14.866Z,12.26
2019-05-21T03:39:47.480Z,12.26
2019-05-21T03:42:21.683Z,12.26
2019-05-21T03:45:00.565Z,12.25
2019-05-21T03:47:35.262Z,12.25
2019-05-21T03:50:08.207Z,12.27
2019-05-21T03:52:42.659Z,12.30
2019-05-21T03:55:15.513Z,12.30
2019-05-21T03:57:48.179Z,12.33
2019-05-21T04:00:23.754Z,12.36
2019-05-21T04:02:57.311Z,12.36
2019-05-21T04:05:29.850Z,12.35
2019-05-21T04:08:02.826Z,12.37
2019-05-21T04:10:38.656Z,12.37
2019-05-21T04:13:11.229Z,12.39
2019-05-21T04:15:56.332Z,12.39
2019-05-21T04:18:35.719Z,12.38
2019-05-21T04:21:10.665Z,12.40
2019-05-21T04:23:44.267Z,12.41
2019-05-21T04:26:17.097Z,12.42
2019-05-21T04:28:49.598Z,12.48
2019-05-21T04:31:22.253Z,12.51
2019-05-21T04:33:54.802Z,12.51
2019-05-21T04:36:27.579Z,12.55
2019-05-21T04:39:00.213Z,12.55
2019-05-21T04:41:32.891Z,12.54
2019-05-21T04:44:06.115Z,12.55
2019-05-21T04:46:38.967Z,12.58
2019-05-21T04:49:11.473Z,12.56
2019-05-21T04:51:45.138Z,12.57
2019-05-21T04:54:18.885Z,12.61
2019-05-21T04:56:51.927Z,12.62
2019-05-21T04:59:24.521Z,12.65
2019-05-21T05:01:57.272Z,12.63
2019-05-21T05:04:29.887Z,12.62
2019-05-21T05:07:04.342Z,12.64
2019-05-21T05:09:37.007Z,12.66
2019-05-21T05:12:09.674Z,12.64
2019-05-21T05:14:42.182Z,12.74
2019-05-21T05:17:15.693Z,12.71
2019-05-21T05:19:48.408Z,12.66
2019-05-21T05:22:21.487Z,12.67
2019-05-21T05:24:53.969Z,12.66
2019-05-21T05:27:26.442Z,12.66
2019-05-21T05:29:59.155Z,12.66
2019-05-21T05:32:31.865Z,12.66
2019-05-21T05:35:05.186Z,12.67
2019-05-21T05:37:44.274Z,12.69
2019-05-21T05:40:19.921Z,12.66
2019-05-21T05:42:54.272Z,12.69
2019-05-21T05:45:27.521Z,12.68
2019-05-21T05:48:01.788Z,12.67
2019-05-21T05:50:50.023Z,12.67
2019-05-21T05:53:23.232Z,12.66
2019-05-21T05:55:57.284Z,12.66
2019-05-21T05:58:30.190Z,12.68
2019-05-21T06:01:05.009Z,12.66
2019-05-21T06:03:40.302Z,12.62
2019-05-21T06:06:13.816Z,12.61
2019-05-21T06:08:46.618Z,12.61
2019-05-21T06:11:20.307Z,12.64
2019-05-21T06:13:53.102Z,12.65
2019-05-21T06:16:25.624Z,12.65
2019-05-21T06:18:58.255Z,12.67
2019-05-21T06:21:31.385Z,12.66
2019-05-21T06:24:04.234Z,12.64
2019-05-21T06:26:36.821Z,12.63
2019-05-21T06:29:09.583Z,12.63
2019-05-21T06:31:42.805Z,12.59
2019-05-21T06:34:15.322Z,12.56
2019-05-21T06:36:48.609Z,12.59
2019-05-21T06:39:22.110Z,12.56
2019-05-21T06:41:54.772Z,12.58
2019-05-21T06:44:30.414Z,12.59
2019-05-21T06:47:05.549Z,12.57
2019-05-21T06:49:38.483Z,12.52
2019-05-21T06:52:13.041Z,12.49
2019-05-21T06:54:47.623Z,12.47
2019-05-21T06:57:20.886Z,12.45
2019-05-21T07:00:01.102Z,12.48
2019-05-21T07:02:36.321Z,12.48
2019-05-21T07:05:09.506Z,12.46
2019-05-21T07:07:42.159Z,12.44
2019-05-21T07:10:15.111Z,12.42
2019-05-21T07:12:50.735Z,12.41
2019-05-21T07:15:27.579Z,12.40
2019-05-21T07:18:03.657Z,12.40
2019-05-21T07:20:43.083Z,12.40
2019-05-21T07:23:17.457Z,12.41
2019-05-21T07:25:52.774Z,12.39
2019-05-21T07:28:31.291Z,12.39
2019-05-21T07:31:04.670Z,12.41
2019-05-21T07:33:39.275Z,12.41
2019-05-21T07:36:12.076Z,12.42
2019-05-21T07:38:53.348Z,12.42
2019-05-21T07:41:27.836Z,12.46
2019-05-21T07:44:00.482Z,12.47
2019-05-21T07:46:34.192Z,12.46
2019-05-21T07:49:06.827Z,12.47
2019-05-21T07:51:41.402Z,12.51
2019-05-21T07:54:14.041Z,12.52
2019-05-21T07:56:48.776Z,12.50
2019-05-21T07:59:25.244Z,12.48
2019-05-21T08:01:57.999Z,12.50
2019-05-21T08:04:35.556Z,12.50
2019-05-21T08:07:08.192Z,12.46
2019-05-21T08:09:41.845Z,12.46
2019-05-21T08:12:36.811Z,12.46
2019-05-21T08:15:15.017Z,12.45
2019-05-21T08:17:48.297Z,12.47
2019-05-21T08:20:29.302Z,12.44
2019-05-21T08:23:02.445Z,12.42
2019-05-21T08:25:36.098Z,12.41
2019-05-21T08:28:09.528Z,12.41
2019-05-21T08:30:45.123Z,12.38
2019-05-21T08:33:19.640Z,12.30
2019-05-21T08:35:53.318Z,12.27
2019-05-21T08:38:25.898Z,12.26
2019-05-21T08:41:00.474Z,12.27
2019-05-21T08:43:33.826Z,12.28
2019-05-21T08:46:06.789Z,12.31
2019-05-21T08:48:39.525Z,12.34
2019-05-21T08:51:13.182Z,12.36
2019-05-21T08:53:46.801Z,12.40
2019-05-21T08:56:20.244Z,12.41
2019-05-21T08:58:53.946Z,12.40
2019-05-21T09:01:27.051Z,12.40
2019-05-21T09:03:59.606Z,12.39
2019-05-21T09:06:35.663Z,12.38
2019-05-21T09:09:09.468Z,12.37
2019-05-21T09:11:42.932Z,12.36
2019-05-21T09:14:16.116Z,12.39
2019-05-21T09:16:49.427Z,12.38
2019-05-21T09:19:22.765Z,12.37
2019-05-21T09:21:55.995Z,12.36
2019-05-21T09:24:30.241Z,12.36
2019-05-21T09:27:03.441Z,12.38
2019-05-21T09:29:37.772Z,12.43
2019-05-21T09:32:11.829Z,12.49
2019-05-21T09:34:49.158Z,12.48
2019-05-21T09:37:24.074Z,12.45
2019-05-21T09:39:57.509Z,12.46
2019-05-21T09:42:33.472Z,12.46
2019-05-21T09:45:08.423Z,12.44
2019-05-21T09:47:41.103Z,12.47
2019-05-21T09:50:15.075Z,12.51
2019-05-21T09:52:48.746Z,12.54
2019-05-21T09:55:21.928Z,12.55
2019-05-21T09:58:28.419Z,12.53
2019-05-21T10:01:15.222Z,12.59
2019-05-21T10:03:57.375Z,12.62
2019-05-21T10:06:31.829Z,12.59
2019-05-21T10:09:17.864Z,12.54
2019-05-21T10:11:52.738Z,12.60
2019-05-21T10:14:28.743Z,12.58
2019-05-21T10:17:02.272Z,12.58
2019-05-21T10:19:36.848Z,12.55
2019-05-21T10:22:10.375Z,12.54
2019-05-21T10:24:45.056Z,12.53
2019-05-21T10:27:18.736Z,12.52
2019-05-21T10:29:52.074Z,12.48
2019-05-21T10:32:26.847Z,12.47
2019-05-21T10:35:00.733Z,12.45
2019-05-21T10:37:34.540Z,12.46
2019-05-21T10:40:10.304Z,12.45
2019-05-21T10:42:45.016Z,12.46
2019-05-21T10:45:22.404Z,12.49
2019-05-21T10:47:56.935Z,12.48
2019-05-21T10:50:29.691Z,12.47
2019-05-21T10:53:07.399Z,12.49
2019-05-21T10:55:39.948Z,12.53
2019-05-21T10:58:15.912Z,12.52
2019-05-21T11:00:54.679Z,12.51
2019-05-21T11:03:51.414Z,12.49
2019-05-21T11:06:24.667Z,12.48
2019-05-21T11:08:58.497Z,12.46
2019-05-21T11:11:31.607Z,12.46
2019-05-21T11:14:14.629Z,12.49
2019-05-21T11:16:53.382Z,12.54
2019-05-21T11:19:27.844Z,12.54
2019-05-21T11:22:02.134Z,12.53
2019-05-21T11:24:35.488Z,12.52
2019-05-21T11:27:13.414Z,12.52
2019-05-21T11:29:47.845Z,12.58
2019-05-21T11:32:20.976Z,12.58
2019-05-21T11:34:54.942Z,12.62
2019-05-21T11:37:29.111Z,12.64
2019-05-21T11:40:08.451Z,12.68
2019-05-21T11:42:42.513Z,12.68
2019-05-21T11:45:31.165Z,12.67
2019-05-21T11:48:07.541Z,12.70
2019-05-21T11:50:41.746Z,12.74
2019-05-21T11:53:14.390Z,12.68
2019-05-21T11:55:46.982Z,12.70
2019-05-21T11:58:20.361Z,12.73
2019-05-21T12:00:54.446Z,12.75
2019-05-21T12:03:27.842Z,12.74
2019-05-21T12:06:11.269Z,12.75
2019-05-21T12:08:56.041Z,12.77
2019-05-21T12:11:30.807Z,12.80
2019-05-21T12:14:06.781Z,12.79
2019-05-21T12:16:44.642Z,12.84
2019-05-21T12:19:18.153Z,12.84
2019-05-21T12:21:51.827Z,12.85
2019-05-21T12:24:27.596Z,12.89
2019-05-21T12:27:07.751Z,12.89
2019-05-21T12:29:40.958Z,12.91
2019-05-21T12:32:14.544Z,12.86
2019-05-21T12:34:47.208Z,12.90
2019-05-21T12:37:19.774Z,12.86
2019-05-21T12:39:54.569Z,12.84
2019-05-21T12:42:32.224Z,12.87
2019-05-21T12:45:08.956Z,12.85
2019-05-21T12:47:44.583Z,12.87
2019-05-21T12:50:22.471Z,12.86
2019-05-21T12:52:57.552Z,12.88
2019-05-21T12:55:39.626Z,12.86
2019-05-21T12:58:14.284Z,12.86
2019-05-21T13:00:50.691Z,12.89
2019-05-21T13:03:26.834Z,12.89
2019-05-21T13:06:01.869Z,12.88
2019-05-21T13:08:35.622Z,12.91
2019-05-21T13:11:10.886Z,12.87
2019-05-21T13:13:49.778Z,12.83
2019-05-21T13:16:27.220Z,12.76
2019-05-21T13:19:03.462Z,12.82
2019-05-21T13:21:36.590Z,12.75
2019-05-21T13:24:09.819Z,12.77
2019-05-21T13:26:44.127Z,12.74
2019-05-21T13:29:17.551Z,12.73
2019-05-21T13:31:51.053Z,12.75
2019-05-21T13:34:27.596Z,12.75
2019-05-21T13:37:00.438Z,12.74
2019-05-21T13:39:48.961Z,12.72
2019-05-21T13:42:23.326Z,12.73
2019-05-21T13:45:02.933Z,12.73
2019-05-21T13:47:39.618Z,12.73
2019-05-21T13:50:28.308Z,12.74
2019-05-21T13:53:01.404Z,12.70
2019-05-21T13:55:34.243Z,12.65
2019-05-21T13:58:09.342Z,12.64
2019-05-21T14:00:53.837Z,12.66
2019-05-21T14:03:28.282Z,12.66
2019-05-21T14:06:01.080Z,12.67
2019-05-21T14:08:35.776Z,12.63
2019-05-21T14:11:08.603Z,12.61
2019-05-21T14:13:42.448Z,12.62
2019-05-21T14:16:15.550Z,12.64
2019-05-21T14:18:50.587Z,12.62
2019-05-21T14:21:23.707Z,12.62
2019-05-21T14:23:57.734Z,12.61
2019-05-21T14:26:30.792Z,12.64
2019-05-21T14:29:05.387Z,12.62
2019-05-21T14:31:41.453Z,12.62
2019-05-21T14:34:15.842Z,12.61
2019-05-21T14:36:49.857Z,12.61
2019-05-21T14:39:25.484Z,12.61
2019-05-21T14:41:59.435Z,12.63
2019-05-21T14:44:39.186Z,12.66
2019-05-21T14:47:15.561Z,12.69
2019-05-21T14:49:50.214Z,12.70
2019-05-21T14:52:24.138Z,12.71
2019-05-21T14:54:57.526Z,12.70
2019-05-21T14:57:30.113Z,12.74
2019-05-21T15:00:16.643Z,12.79
2019-05-21T15:02:50.092Z,12.78
2019-05-21T15:05:25.970Z,12.78
2019-05-21T15:08:00.541Z,12.81
2019-05-21T15:10:47.167Z,12.80
2019-05-21T15:13:24.926Z,12.81
2019-05-21T15:15:57.906Z,12.81
2019-05-21T15:18:33.261Z,12.78
2019-05-21T15:21:13.731Z,12.78
2019-05-21T15:23:48.722Z,12.74
2019-05-21T15:26:35.783Z,12.73
2019-05-21T15:29:10.971Z,12.72
2019-05-21T15:31:52.456Z,12.68
2019-05-21T15:34:31.626Z,12.65
2019-05-21T15:37:08.639Z,12.63
2019-05-21T15:39:44.681Z,12.59
2019-05-21T15:42:21.661Z,12.60
2019-05-21T15:44:58.030Z,12.58
2019-05-21T15:47:33.868Z,12.56
2019-05-21T15:50:09.239Z,12.53
2019-05-21T15:52:42.044Z,12.54
2019-05-21T15:55:14.825Z,12.51
2019-05-21T15:57:51.708Z,12.48
2019-05-21T16:00:26.093Z,12.48
2019-05-21T16:02:58.866Z,12.49
2019-05-21T16:05:33.858Z,12.48
2019-05-21T16:08:11.457Z,12.48
2019-05-21T16:10:48.353Z,12.47
2019-05-21T16:13:24.616Z,12.48
2019-05-21T16:15:59.780Z,12.48
2019-05-21T16:18:35.632Z,12.49
2019-05-21T16:21:08.173Z,12.47
2019-05-21T16:23:45.365Z,12.47
2019-05-21T16:26:19.602Z,12.47
2019-05-21T16:28:53.450Z,12.46
2019-05-21T16:31:27.796Z,12.46
2019-05-21T16:34:00.572Z,12.46
2019-05-21T16:36:34.019Z,12.47
2019-05-21T16:39:10.149Z,12.47
2019-05-21T16:41:45.330Z,12.47
2019-05-21T16:44:19.740Z,12.47
2019-05-21T16:46:54.147Z,12.46
2019-05-21T16:49:30.100Z,12.46
2019-05-21T16:52:07.495Z,12.42
2019-05-21T16:54:40.222Z,12.41
2019-05-21T16:57:13.539Z,12.42
2019-05-21T16:59:46.702Z,12.39
2019-05-21T17:02:21.192Z,12.38
2019-05-21T17:04:59.442Z,12.39
2019-05-21T17:07:34.790Z,12.37
2019-05-21T17:10:14.630Z,12.38
2019-05-21T17:12:49.901Z,12.38
2019-05-21T17:15:24.715Z,12.37
2019-05-21T17:18:01.763Z,12.35
2019-05-21T17:20:34.647Z,12.34
2019-05-21T17:23:12.715Z,12.32
2019-05-21T17:25:53.613Z,12.35
2019-05-21T17:28:33.069Z,12.34
2019-05-21T17:31:06.931Z,12.34
2019-05-21T17:33:40.480Z,12.33
2019-05-21T17:36:13.862Z,12.32
2019-05-21T17:38:47.263Z,12.32
2019-05-21T17:41:25.783Z,12.33
2019-05-21T17:44:02.549Z,12.32
2019-05-21T17:46:39.415Z,12.32
2019-05-21T17:49:13.132Z,12.32
2019-05-21T17:51:47.072Z,12.32
2019-05-21T17:54:24.589Z,12.30
2019-05-21T17:57:01.546Z,12.28
2019-05-21T17:59:37.237Z,12.26
2019-05-21T18:02:13.735Z,12.26
2019-05-21T18:04:48.410Z,12.26
2019-05-21T18:07:32.387Z,12.25
2019-05-21T18:10:07.435Z,12.24
2019-05-21T18:12:49.689Z,12.23
2019-05-21T18:15:25.212Z,12.22
2019-05-21T18:18:00.267Z,12.23
2019-05-21T18:20:39.350Z,12.23
2019-05-21T18:23:14.011Z,12.23
2019-05-21T18:25:47.303Z,12.21
2019-05-21T18:28:19.984Z,12.23
2019-05-21T18:30:54.637Z,12.21
2019-05-21T18:33:31.281Z,12.19
2019-05-21T18:36:07.509Z,12.18
2019-05-21T18:38:41.791Z,12.17
2019-05-21T18:41:19.423Z,12.16
2019-05-21T18:43:53.138Z,12.16
2019-05-21T18:46:34.077Z,12.15
2019-05-21T18:49:13.749Z,12.17
2019-05-21T18:51:55.274Z,12.17
2019-05-21T18:54:43.078Z,12.16
2019-05-21T18:57:24.592Z,12.18
2019-05-21T19:00:10.398Z,12.16
2019-05-21T19:02:53.079Z,12.17
2019-05-21T19:05:30.793Z,12.16
2019-05-21T19:08:14.015Z,12.15
2019-05-21T19:10:59.054Z,12.13
2019-05-21T19:13:40.977Z,12.13
2019-05-21T19:16:30.074Z,12.12
2019-05-21T19:19:13.098Z,12.10
2019-05-21T19:22:13.181Z,12.08
2019-05-21T19:24:53.431Z,12.06
2019-05-21T19:27:46.705Z,12.04
2019-05-21T19:30:27.552Z,12.03
2019-05-21T19:33:08.134Z,12.05
2019-05-21T19:35:46.347Z,12.03
2019-05-21T19:38:24.475Z,12.01
2019-05-21T19:41:00.815Z,12.03
2019-05-21T19:43:43.288Z,12.01
2019-05-21T19:46:20.841Z,11.99
2019-05-21T19:48:55.734Z,11.98
2019-05-21T19:51:32.907Z,11.97
2019-05-21T19:54:10.661Z,11.97
2019-05-21T19:56:44.599Z,11.98
2019-05-21T19:59:19.625Z,12.00
2019-05-21T20:02:01.387Z,11.96
2019-05-21T20:04:37.249Z,11.94
2019-05-21T20:07:14.674Z,11.92
2019-05-21T20:09:56.112Z,11.90
2019-05-21T20:12:33.815Z,11.88
2019-05-21T20:15:17.855Z,11.87
2019-05-21T20:18:06.966Z,11.84
2019-05-21T20:20:43.924Z,11.83
2019-05-21T20:23:20.806Z,11.85
2019-05-21T20:25:59.300Z,11.82
2019-05-21T20:28:35.138Z,11.79
2019-05-21T20:31:11.066Z,11.76
2019-05-21T20:33:49.594Z,11.79
2019-05-21T20:36:26.609Z,11.76
2019-05-21T20:39:01.748Z,11.74
2019-05-21T20:41:37.303Z,11.71
2019-05-21T20:44:12.624Z,11.70
2019-05-21T20:46:47.646Z,11.69
2019-05-21T20:49:22.082Z,11.69
2019-05-21T20:52:17.376Z,11.67
2019-05-21T20:54:57.847Z,11.66
2019-05-21T20:57:31.338Z,11.69
2019-05-21T21:00:10.526Z,11.70
2019-05-21T21:02:54.047Z,11.66
2019-05-21T21:05:26.912Z,11.66
2019-05-21T21:08:01.056Z,11.65
2019-05-21T21:10:38.246Z,11.64
2019-05-21T21:13:14.987Z,11.64
2019-05-21T21:15:49.458Z,11.60
2019-05-21T21:18:22.707Z,11.58
2019-05-21T21:20:55.818Z,11.58
2019-05-21T21:23:32.190Z,11.55
2019-05-21T21:26:06.065Z,11.53
2019-05-21T21:28:40.026Z,11.50
2019-05-21T21:31:13.287Z,11.49
2019-05-21T21:33:51.004Z,11.47
2019-05-21T21:36:24.934Z,11.48
2019-05-21T21:38:59.274Z,11.48
2019-05-21T21:41:32.361Z,11.47
2019-05-21T21:44:05.443Z,11.48
2019-05-21T21:46:38.576Z,11.47
2019-05-21T21:49:15.431Z,11.47
2019-05-21T21:51:49.668Z,11.47
2019-05-21T21:54:24.588Z,11.45
2019-05-21T21:56:58.561Z,11.45
2019-05-21T21:59:32.210Z,11.46
2019-05-21T22:02:28.188Z,11.45
2019-05-21T22:05:05.257Z,11.44
2019-05-21T22:07:39.726Z,11.45
2019-05-21T22:10:13.349Z,11.44
2019-05-21T22:12:47.423Z,11.43
2019-05-21T22:15:22.587Z,11.43
2019-05-21T22:17:58.788Z,11.41
2019-05-21T22:20:32.730Z,11.41
2019-05-21T22:23:08.295Z,11.40
2019-05-21T22:25:41.672Z,11.41
2019-05-21T22:28:18.544Z,11.41
2019-05-21T22:30:52.755Z,11.40
2019-05-21T22:33:27.966Z,11.37
2019-05-21T22:36:00.805Z,11.37
2019-05-21T22:38:36.991Z,11.38
2019-05-21T22:41:10.694Z,11.37
2019-05-21T22:43:48.558Z,11.36
2019-05-21T22:46:22.480Z,11.37
2019-05-21T22:48:56.142Z,11.37
2019-05-21T22:51:32.012Z,11.37
2019-05-21T22:54:04.736Z,11.35
2019-05-21T22:56:38.150Z,11.35
2019-05-21T22:59:12.922Z,11.35
2019-05-21T23:01:49.836Z,11.34
2019-05-21T23:04:26.337Z,11.33
2019-05-21T23:07:00.584Z,11.33
2019-05-21T23:09:34.924Z,11.38
2019-05-21T23:12:11.526Z,11.35
2019-05-21T23:14:53.789Z,11.36
2019-05-21T23:17:26.857Z,11.38
2019-05-21T23:20:05.180Z,11.36
2019-05-21T23:22:40.607Z,11.36
2019-05-21T23:25:14.927Z,11.36
2019-05-21T23:27:48.711Z,11.37
2019-05-21T23:30:25.743Z,11.35
2019-05-21T23:33:00.237Z,11.35
2019-05-21T23:35:34.881Z,11.38
2019-05-21T23:38:09.937Z,11.36
2019-05-21T23:40:44.386Z,11.35
2019-05-21T23:43:17.726Z,11.36
2019-05-21T23:45:50.538Z,11.34
2019-05-21T23:48:23.608Z,11.33
2019-05-21T23:50:56.967Z,11.31
2019-05-21T23:53:29.861Z,11.31
2019-05-21T23:56:05.331Z,11.30
2019-05-21T23:58:39.950Z,11.28
